createdAt,value
2022-08-02T00:00:42.707Z,4.60
2022-08-02T00:03:10.873Z,4.60
2022-08-02T00:05:40.240Z,5.90
2022-08-02T00:08:08.577Z,4.97
2022-08-02T00:10:36.741Z,4.00
2022-08-02T00:13:05.023Z,4.03
2022-08-02T00:15:33.204Z,6.10
2022-08-02T00:18:02.834Z,4.23
2022-08-02T00:20:31.245Z,5.13
2022-08-02T00:22:59.417Z,4.80
2022-08-02T00:25:27.690Z,4.53
2022-08-02T00:27:55.881Z,3.87
2022-08-02T00:30:24.149Z,4.37
2022-08-02T00:32:52.347Z,4.50
2022-08-02T00:35:23.464Z,3.87
2022-08-02T00:37:52.283Z,4.53
2022-08-02T00:40:23.275Z,4.10
2022-08-02T00:43:04.224Z,3.60
2022-08-02T00:46:02.283Z,3.80
2022-08-02T00:48:20.819Z,3.93
2022-08-02T00:50:50.363Z,4.50
2022-08-02T00:53:18.521Z,4.90
2022-08-02T00:55:46.716Z,5.00
2022-08-02T00:58:14.904Z,4.17
2022-08-02T01:00:43.324Z,3.70
2022-08-02T01:03:11.496Z,4.83
2022-08-02T01:06:02.430Z,4.60
2022-08-02T01:08:31.704Z,4.93
2022-08-02T01:11:00.591Z,4.50
2022-08-02T01:13:29.139Z,5.73
2022-08-02T01:16:05.294Z,4.80
2022-08-02T01:18:40.095Z,5.40
2022-08-02T01:21:42.185Z,5.00
2022-08-02T01:24:37.186Z,4.43
2022-08-02T01:27:30.892Z,5.00
2022-08-02T01:30:03.365Z,5.00
2022-08-02T01:32:36.737Z,5.53
2022-08-02T01:35:11.526Z,5.87
2022-08-02T01:37:44.326Z,5.10
2022-08-02T01:40:17.435Z,5.40
2022-08-02T01:42:49.507Z,5.37
2022-08-02T01:45:22.570Z,6.07
2022-08-02T01:47:51.679Z,5.03
2022-08-02T01:50:26.857Z,6.80
2022-08-02T01:52:58.266Z,7.30
2022-08-02T01:55:35.306Z,7.47
2022-08-02T01:58:21.386Z,6.37
2022-08-02T02:00:52.611Z,6.57
2022-08-02T02:03:22.559Z,6.63
2022-08-02T02:05:53.087Z,6.17
2022-08-02T02:08:31.367Z,6.27
2022-08-02T02:12:12.001Z,5.73
2022-08-02T02:13:51.347Z,6.10
2022-08-02T02:16:22.382Z,6.77
2022-08-02T02:18:53.779Z,6.53
2022-08-02T02:21:22.886Z,8.20
2022-08-02T02:23:51.118Z,7.00
2022-08-02T02:26:29.440Z,6.00
2022-08-02T02:29:02.649Z,6.60
2022-08-02T02:31:35.725Z,6.30
2022-08-02T02:34:06.929Z,5.53
2022-08-02T02:36:37.253Z,5.80
2022-08-02T02:39:13.357Z,6.07
2022-08-02T02:41:43.571Z,6.30
2022-08-02T02:44:17.267Z,5.60
2022-08-02T02:46:50.771Z,6.17
2022-08-02T02:49:21.443Z,5.43
2022-08-02T02:51:50.696Z,5.50
2022-08-02T02:54:30.546Z,5.07
2022-08-02T02:57:04.539Z,6.50
2022-08-02T02:59:34.270Z,10.50
2022-08-02T03:02:05.792Z,5.37
2022-08-02T03:04:55.646Z,6.33
2022-08-02T03:07:24.454Z,5.10
2022-08-02T03:09:54.355Z,5.50
2022-08-02T03:12:30.610Z,5.73
2022-08-02T03:15:00.592Z,6.87
2022-08-02T03:17:40.626Z,8.53
2022-08-02T03:20:12.168Z,6.40
2022-08-02T03:22:40.407Z,6.30
2022-08-02T03:25:09.833Z,7.77
2022-08-02T03:27:38.224Z,6.13
2022-08-02T03:30:08.841Z,6.90
2022-08-02T03:32:39.878Z,8.80
2022-08-02T03:35:11.634Z,8.20
2022-08-02T03:37:41.523Z,7.17
2022-08-02T03:40:12.027Z,7.13
2022-08-02T03:42:41.504Z,8.67
2022-08-02T03:45:13.418Z,9.97
2022-08-02T03:47:45.535Z,7.70
2022-08-02T03:50:14.259Z,7.07
2022-08-02T03:52:43.810Z,7.90
2022-08-02T03:55:13.738Z,7.90
2022-08-02T03:57:43.650Z,7.60
2022-08-02T04:00:14.391Z,7.87
2022-08-02T04:02:43.925Z,7.10
2022-08-02T04:05:12.182Z,7.03
2022-08-02T04:08:02.643Z,7.40
2022-08-02T04:10:28.844Z,7.30
2022-08-02T04:12:58.501Z,8.30
2022-08-02T04:15:26.822Z,6.83
2022-08-02T04:18:01.099Z,7.57
2022-08-02T04:20:32.785Z,10.30
2022-08-02T04:23:05.661Z,8.30
2022-08-02T04:25:40.449Z,7.10
2022-08-02T04:28:17.454Z,6.83
2022-08-02T04:30:47.751Z,7.47
2022-08-02T04:33:18.146Z,8.27
2022-08-02T04:35:46.886Z,8.37
2022-08-02T04:38:16.230Z,8.23
2022-08-02T04:40:52.340Z,7.73
2022-08-02T04:43:21.495Z,8.60
2022-08-02T04:45:52.582Z,9.50
2022-08-02T04:48:23.082Z,7.80
2022-08-02T04:50:51.989Z,8.83
2022-08-02T04:53:20.261Z,6.67
2022-08-02T04:55:48.438Z,9.07
2022-08-02T04:58:40.321Z,7.50
2022-08-02T05:01:04.887Z,7.33
2022-08-02T05:03:34.543Z,8.20
2022-08-02T05:06:02.811Z,8.50
2022-08-02T05:08:30.968Z,9.70
2022-08-02T05:10:59.136Z,7.80
2022-08-02T05:13:27.400Z,8.43
2022-08-02T05:15:55.578Z,8.10
2022-08-02T05:18:23.807Z,8.10
2022-08-02T05:20:58.079Z,8.93
2022-08-02T05:23:26.598Z,8.93
2022-08-02T05:25:54.818Z,8.40
2022-08-02T05:28:23.250Z,8.03
2022-08-02T05:30:51.387Z,8.30
2022-08-02T05:33:19.548Z,12.50
2022-08-02T05:35:47.742Z,7.97
2022-08-02T05:38:17.411Z,8.73
2022-08-02T05:40:54.798Z,8.63
2022-08-02T05:43:24.375Z,9.53
2022-08-02T05:45:54.586Z,11.70
2022-08-02T05:48:26.560Z,9.33
2022-08-02T05:51:04.801Z,8.47
2022-08-02T05:53:41.419Z,9.27
2022-08-02T05:56:24.118Z,8.57
2022-08-02T05:59:01.506Z,8.70
2022-08-02T06:01:36.706Z,9.33
2022-08-02T06:04:08.247Z,7.97
2022-08-02T06:06:37.386Z,11.10
2022-08-02T06:09:15.638Z,10.40
2022-08-02T06:12:02.147Z,11.53
2022-08-02T06:14:35.530Z,9.70
2022-08-02T06:17:05.917Z,14.97
2022-08-02T06:19:36.634Z,10.60
2022-08-02T06:22:33.088Z,8.50
2022-08-02T06:25:11.647Z,10.13
2022-08-02T06:27:56.756Z,10.90
2022-08-02T06:30:25.195Z,8.37
2022-08-02T06:32:54.070Z,9.37
2022-08-02T06:35:22.608Z,7.73
2022-08-02T06:37:58.618Z,5.53
2022-08-02T06:40:32.309Z,5.00
2022-08-02T06:43:11.488Z,4.83
2022-08-02T06:45:40.821Z,6.77
2022-08-02T06:48:09.116Z,11.37
2022-08-02T06:50:38.886Z,5.20
2022-08-02T06:53:07.573Z,5.33
2022-08-02T06:55:43.647Z,5.30
2022-08-02T06:58:13.522Z,4.43
2022-08-02T07:00:43.187Z,4.97
2022-08-02T07:03:11.609Z,4.67
2022-08-02T07:05:39.786Z,4.70
2022-08-02T07:08:08.441Z,5.63
2022-08-02T07:10:37.994Z,7.03
2022-08-02T07:13:06.137Z,4.57
2022-08-02T07:15:34.464Z,4.30
2022-08-02T07:18:02.656Z,3.80
2022-08-02T07:20:30.816Z,4.90
2022-08-02T07:22:59.063Z,4.20
2022-08-02T07:25:27.267Z,3.67
2022-08-02T07:28:22.142Z,4.10
2022-08-02T07:30:52.596Z,4.30
2022-08-02T07:33:37.452Z,4.70
2022-08-02T07:36:09.854Z,4.63
2022-08-02T07:38:45.489Z,3.50
2022-08-02T07:41:14.118Z,3.80
2022-08-02T07:43:43.669Z,3.80
2022-08-02T07:46:11.919Z,4.37
2022-08-02T07:48:40.074Z,3.80
2022-08-02T07:51:08.294Z,4.67
2022-08-02T07:53:51.273Z,3.83
2022-08-02T07:56:20.028Z,3.87
2022-08-02T07:58:49.621Z,3.77
2022-08-02T08:01:18.592Z,3.20
2022-08-02T08:03:47.262Z,3.93
2022-08-02T08:06:15.438Z,3.97
2022-08-02T08:08:44.538Z,4.37
2022-08-02T08:11:12.683Z,3.20
2022-08-02T08:13:40.934Z,2.93
2022-08-02T08:16:10.454Z,3.00
2022-08-02T08:18:38.657Z,3.40
2022-08-02T08:21:07.304Z,4.27
2022-08-02T08:23:35.934Z,4.77
2022-08-02T08:26:04.355Z,4.37
2022-08-02T08:28:32.624Z,3.70
2022-08-02T08:31:00.976Z,2.77
2022-08-02T08:33:30.567Z,3.07
2022-08-02T08:35:58.787Z,3.10
2022-08-02T08:38:30.703Z,3.40
2022-08-02T08:40:58.930Z,3.90
2022-08-02T08:43:27.109Z,3.30
2022-08-02T08:45:56.536Z,3.90
2022-08-02T08:48:30.441Z,3.90
2022-08-02T08:51:09.315Z,3.40
2022-08-02T08:53:43.433Z,2.33
2022-08-02T08:56:16.289Z,2.83
2022-08-02T08:58:45.622Z,2.70
2022-08-02T09:01:15.184Z,2.87
2022-08-02T09:03:43.704Z,2.70
2022-08-02T09:06:13.281Z,3.00
2022-08-02T09:08:41.430Z,2.53
2022-08-02T09:11:15.790Z,2.97
2022-08-02T09:13:51.863Z,3.20
2022-08-02T09:16:33.562Z,3.60
2022-08-02T09:19:02.584Z,2.60
2022-08-02T09:21:38.832Z,2.87
2022-08-02T09:24:17.987Z,2.63
2022-08-02T09:26:47.234Z,2.40
2022-08-02T09:29:15.964Z,4.20
2022-08-02T09:31:49.609Z,2.30
2022-08-02T09:34:19.779Z,2.10
2022-08-02T09:36:54.575Z,2.80
2022-08-02T09:39:23.881Z,2.60
2022-08-02T09:41:52.195Z,2.43
2022-08-02T09:44:20.576Z,2.83
2022-08-02T09:46:48.737Z,4.53
2022-08-02T09:49:18.952Z,5.03
2022-08-02T09:51:52.663Z,2.00
2022-08-02T09:54:22.222Z,2.43
2022-08-02T09:56:52.983Z,2.00
2022-08-02T09:59:24.842Z,2.23
2022-08-02T10:02:01.441Z,2.20
2022-08-02T10:04:33.803Z,3.13
2022-08-02T10:07:04.942Z,2.37
2022-08-02T10:09:33.699Z,2.00
2022-08-02T10:12:08.813Z,2.33
2022-08-02T10:14:37.495Z,2.40
2022-08-02T10:17:06.184Z,1.80
2022-08-02T10:20:00.192Z,2.13
2022-08-02T10:22:26.330Z,1.83
2022-08-02T10:24:55.179Z,2.07
2022-08-02T10:27:25.759Z,3.57
2022-08-02T10:30:00.192Z,2.00
2022-08-02T10:32:32.399Z,1.97
2022-08-02T10:35:19.471Z,2.30
2022-08-02T10:37:57.291Z,1.80
2022-08-02T10:40:26.913Z,2.80
2022-08-02T10:42:59.396Z,2.10
2022-08-02T10:45:30.105Z,3.33
2022-08-02T10:48:03.520Z,2.20
2022-08-02T10:50:54.271Z,3.23
2022-08-02T10:53:25.720Z,2.73
2022-08-02T10:55:55.261Z,1.77
2022-08-02T10:58:29.734Z,1.67
2022-08-02T11:00:59.469Z,2.37
2022-08-02T11:03:40.821Z,2.20
2022-08-02T11:06:25.461Z,2.23
2022-08-02T11:09:33.394Z,1.90
2022-08-02T11:12:04.360Z,2.10
2022-08-02T11:14:34.190Z,1.90
2022-08-02T11:17:11.027Z,2.07
2022-08-02T11:20:17.612Z,2.90
2022-08-02T11:22:47.620Z,3.60
2022-08-02T11:26:02.687Z,2.07
2022-08-02T11:28:26.062Z,5.50
2022-08-02T11:31:03.080Z,2.00
2022-08-02T11:33:33.030Z,2.00
2022-08-02T11:36:07.129Z,1.60
2022-08-02T11:38:35.930Z,1.70
2022-08-02T11:41:09.626Z,1.47
2022-08-02T11:43:39.019Z,2.00
2022-08-02T11:46:14.524Z,1.50
2022-08-02T11:48:44.730Z,1.50
2022-08-02T11:51:14.991Z,2.40
2022-08-02T11:53:46.017Z,1.40
2022-08-02T11:56:17.895Z,1.47
2022-08-02T11:59:06.363Z,1.60
2022-08-02T12:01:44.996Z,2.47
2022-08-02T12:04:22.404Z,1.90
2022-08-02T12:06:59.008Z,1.60
2022-08-02T12:09:29.348Z,1.73
2022-08-02T12:12:00.411Z,1.77
2022-08-02T12:14:30.111Z,1.60
2022-08-02T12:17:16.943Z,1.63
2022-08-02T12:19:45.406Z,1.63
2022-08-02T12:22:18.983Z,1.53
2022-08-02T12:24:49.250Z,1.70
2022-08-02T12:27:33.811Z,1.60
2022-08-02T12:30:06.023Z,1.73
2022-08-02T12:32:34.462Z,1.50
2022-08-02T12:35:08.369Z,1.80
2022-08-02T12:37:37.229Z,1.60
2022-08-02T12:40:25.758Z,1.70
2022-08-02T12:42:59.032Z,1.97
2022-08-02T12:45:40.824Z,1.40
2022-08-02T12:48:10.896Z,1.70
2022-08-02T12:50:40.166Z,1.43
2022-08-02T12:53:10.362Z,1.73
2022-08-02T12:55:59.438Z,3.57
2022-08-02T12:58:32.665Z,1.70
2022-08-02T13:01:02.391Z,1.80
2022-08-02T13:04:09.992Z,1.70
2022-08-02T13:09:16.927Z,1.40
2022-08-02T13:11:45.363Z,1.83
2022-08-02T13:14:15.320Z,1.23
2022-08-02T13:16:45.020Z,1.80
2022-08-02T13:19:15.302Z,1.33
2022-08-02T13:22:01.965Z,1.40
2022-08-02T13:24:39.942Z,1.60
2022-08-02T13:27:21.757Z,1.80
2022-08-02T13:29:52.097Z,2.03
2022-08-02T13:32:20.976Z,1.83
2022-08-02T13:34:49.697Z,1.53
2022-08-02T13:37:18.174Z,1.77
2022-08-02T13:40:05.708Z,1.40
2022-08-02T13:42:34.655Z,1.50
2022-08-02T13:45:13.330Z,1.40
2022-08-02T13:48:04.634Z,1.47
2022-08-02T13:50:31.572Z,1.73
2022-08-02T13:52:59.790Z,1.87
2022-08-02T13:55:28.166Z,1.97
2022-08-02T13:57:56.506Z,1.80
2022-08-02T14:00:34.826Z,1.70
2022-08-02T14:03:04.979Z,1.90
2022-08-02T14:05:40.596Z,2.00
2022-08-02T14:08:17.958Z,1.80
2022-08-02T14:10:47.050Z,2.00
2022-08-02T14:13:15.319Z,1.97
2022-08-02T14:15:45.340Z,2.13
2022-08-02T14:18:15.361Z,1.40
2022-08-02T14:20:44.056Z,2.10
2022-08-02T14:23:12.415Z,2.13
2022-08-02T14:25:41.137Z,2.40
2022-08-02T14:28:09.490Z,1.73
2022-08-02T14:30:37.731Z,1.60
2022-08-02T14:33:07.300Z,1.70
2022-08-02T14:35:35.494Z,1.30
2022-08-02T14:38:03.656Z,1.07
2022-08-02T14:40:32.234Z,2.00
2022-08-02T14:43:01.172Z,1.70
2022-08-02T14:45:40.331Z,1.70
2022-08-02T14:48:12.616Z,2.53
2022-08-02T14:50:40.884Z,2.03
2022-08-02T14:53:12.466Z,2.20
2022-08-02T14:55:42.882Z,3.20
2022-08-02T14:58:11.867Z,2.63
2022-08-02T15:00:41.252Z,1.87
2022-08-02T15:03:12.097Z,1.77
2022-08-02T15:05:40.523Z,1.80
2022-08-02T15:08:08.880Z,1.90
2022-08-02T15:10:37.164Z,2.53
2022-08-02T15:13:05.330Z,1.53
2022-08-02T15:15:43.405Z,2.70
2022-08-02T15:18:14.322Z,2.17
2022-08-02T15:20:47.804Z,2.10
2022-08-02T15:23:37.102Z,1.70
2022-08-02T15:26:06.038Z,1.33
2022-08-02T15:28:34.428Z,1.30
2022-08-02T15:31:02.660Z,1.73
2022-08-02T15:33:32.187Z,1.90
2022-08-02T15:36:00.575Z,1.70
2022-08-02T15:38:28.743Z,1.60
2022-08-02T15:40:56.863Z,2.10
2022-08-02T15:43:25.035Z,1.70
2022-08-02T15:45:53.242Z,4.10
2022-08-02T15:48:21.486Z,1.90
2022-08-02T15:50:51.035Z,6.00
2022-08-02T15:53:19.207Z,4.90
2022-08-02T15:55:52.729Z,4.30
2022-08-02T15:58:33.416Z,2.70
2022-08-02T16:01:10.787Z,2.10
2022-08-02T16:03:38.952Z,2.57
2022-08-02T16:06:08.524Z,2.00
2022-08-02T16:08:36.712Z,1.77
2022-08-02T16:11:04.876Z,1.57
2022-08-02T16:13:52.845Z,1.60
2022-08-02T16:16:22.823Z,1.60
2022-08-02T16:18:51.158Z,1.70
2022-08-02T16:21:20.804Z,1.57
2022-08-02T16:23:59.033Z,1.53
2022-08-02T16:26:30.963Z,1.40
2022-08-02T16:29:00.322Z,1.73
2022-08-02T16:31:28.462Z,1.37
2022-08-02T16:33:57.419Z,2.13
2022-08-02T16:36:27.574Z,2.00
2022-08-02T16:38:55.907Z,2.30
2022-08-02T16:41:24.274Z,1.80
2022-08-02T16:44:12.471Z,2.80
2022-08-02T16:46:40.653Z,1.93
2022-08-02T16:50:04.901Z,2.67
2022-08-02T16:52:02.856Z,2.20
2022-08-02T16:54:31.678Z,2.10
2022-08-02T16:56:59.936Z,2.40
2022-08-02T16:59:34.115Z,2.40
2022-08-02T17:02:18.195Z,2.13
2022-08-02T17:04:47.694Z,1.90
2022-08-02T17:08:07.352Z,1.80
2022-08-02T17:10:09.142Z,2.20
2022-08-02T17:12:38.047Z,2.00
2022-08-02T17:16:01.588Z,2.50
2022-08-02T17:17:55.814Z,2.37
2022-08-02T17:20:24.410Z,1.80
2022-08-02T17:22:54.265Z,2.07
2022-08-02T17:25:24.777Z,2.37
2022-08-02T17:27:55.895Z,3.17
2022-08-02T17:30:26.709Z,2.77
2022-08-02T17:32:57.625Z,1.80
2022-08-02T17:35:43.251Z,2.10
2022-08-02T17:38:25.879Z,3.07
2022-08-02T17:40:55.146Z,2.67
2022-08-02T17:43:29.112Z,2.13
2022-08-02T17:46:00.718Z,2.23
2022-08-02T17:48:55.103Z,2.33
2022-08-02T17:52:14.922Z,2.37
2022-08-02T17:54:13.963Z,2.17
2022-08-02T17:56:42.637Z,2.50
2022-08-02T17:59:20.787Z,3.13
2022-08-02T18:01:53.151Z,2.90
2022-08-02T18:04:26.881Z,3.77
2022-08-02T18:06:57.868Z,2.40
2022-08-02T18:09:28.107Z,3.80
2022-08-02T18:11:57.274Z,2.83
2022-08-02T18:14:26.585Z,3.97
2022-08-02T18:16:54.941Z,3.40
2022-08-02T18:19:23.120Z,4.70
2022-08-02T18:22:02.964Z,4.53
2022-08-02T18:24:32.594Z,5.27
2022-08-02T18:27:00.746Z,6.00
2022-08-02T18:29:30.053Z,3.90
2022-08-02T18:32:11.846Z,4.07
2022-08-02T18:34:40.415Z,2.83
2022-08-02T18:37:12.739Z,10.40
2022-08-02T18:39:42.703Z,3.90
2022-08-02T18:42:20.127Z,2.23
2022-08-02T18:44:48.299Z,2.90
2022-08-02T18:47:16.470Z,3.03
2022-08-02T18:49:46.310Z,3.60
2022-08-02T18:52:27.473Z,5.60
2022-08-02T18:55:01.185Z,5.30
2022-08-02T18:58:18.330Z,5.90
2022-08-02T19:00:20.611Z,4.30
2022-08-02T19:02:54.153Z,4.97
2022-08-02T19:05:24.103Z,3.27
2022-08-02T19:08:12.878Z,4.80
2022-08-02T19:10:49.217Z,4.60
2022-08-02T19:13:18.445Z,7.50
2022-08-02T19:15:46.601Z,9.80
2022-08-02T19:18:16.077Z,8.60
2022-08-02T19:20:47.421Z,8.03
2022-08-02T19:23:17.200Z,10.47
2022-08-02T19:25:54.381Z,8.47
2022-08-02T19:28:26.044Z,20.20
2022-08-02T19:30:55.009Z,18.20
2022-08-02T19:33:25.232Z,20.10
2022-08-02T19:36:11.699Z,21.80
2022-08-02T19:38:44.093Z,20.47
2022-08-02T19:41:15.747Z,21.67
2022-08-02T19:44:24.291Z,21.70
2022-08-02T19:46:32.107Z,24.33
2022-08-02T19:49:01.403Z,25.07
2022-08-02T19:51:49.476Z,30.17
2022-08-02T19:54:21.131Z,29.37
2022-08-02T19:57:08.120Z,31.73
2022-08-02T19:59:36.348Z,31.90
2022-08-02T20:02:04.848Z,30.83
2022-08-02T20:04:33.052Z,33.83
2022-08-02T20:07:04.764Z,33.83
2022-08-02T20:09:33.179Z,33.50
2022-08-02T20:12:16.712Z,35.57
2022-08-02T20:14:50.679Z,35.47
2022-08-02T20:17:21.122Z,31.40
2022-08-02T20:19:49.778Z,28.10
2022-08-02T20:22:20.447Z,21.17
2022-08-02T20:24:48.866Z,23.53
2022-08-02T20:27:23.050Z,21.73
2022-08-02T20:29:53.057Z,9.00
2022-08-02T20:32:24.105Z,8.53
2022-08-02T20:34:53.071Z,8.83
2022-08-02T20:38:00.630Z,11.47
2022-08-02T20:40:16.562Z,8.83
2022-08-02T20:42:48.026Z,6.40
2022-08-02T20:45:16.849Z,6.77
2022-08-02T20:47:49.814Z,6.83
2022-08-02T20:50:37.304Z,7.43
2022-08-02T20:53:06.902Z,6.67
2022-08-02T20:55:40.823Z,7.50
2022-08-02T20:58:11.899Z,7.93
2022-08-02T21:00:40.734Z,7.43
2022-08-02T21:03:10.131Z,9.00
2022-08-02T21:05:43.539Z,8.50
2022-08-02T21:08:24.103Z,10.17
2022-08-02T21:10:53.419Z,11.67
2022-08-02T21:13:26.142Z,13.30
2022-08-02T21:15:59.626Z,14.77
2022-08-02T21:18:40.048Z,16.83
2022-08-02T21:21:09.980Z,14.23
2022-08-02T21:23:38.535Z,16.80
2022-08-02T21:26:19.754Z,19.20
2022-08-02T21:28:55.611Z,22.43
2022-08-02T21:31:24.107Z,15.37
2022-08-02T21:34:00.086Z,15.13
2022-08-02T21:36:30.899Z,16.57
2022-08-02T21:39:05.226Z,16.37
2022-08-02T21:41:39.208Z,14.00
2022-08-02T21:44:16.923Z,11.20
2022-08-02T21:46:46.679Z,10.27
2022-08-02T21:49:18.219Z,14.77
2022-08-02T21:51:49.252Z,9.30
2022-08-02T21:54:21.350Z,10.10
2022-08-02T21:56:52.197Z,8.07
2022-08-02T21:59:26.197Z,7.33
2022-08-02T22:01:56.913Z,7.83
2022-08-02T22:04:25.982Z,7.47
2022-08-02T22:06:55.067Z,8.30
2022-08-02T22:09:44.685Z,5.90
2022-08-02T22:12:16.532Z,5.33
2022-08-02T22:14:53.854Z,4.20
2022-08-02T22:17:50.429Z,3.53
2022-08-02T22:20:14.114Z,4.00
2022-08-02T22:22:43.904Z,4.30
2022-08-02T22:25:26.615Z,3.30
2022-08-02T22:28:36.534Z,5.10
2022-08-02T22:30:52.830Z,3.73
2022-08-02T22:33:42.355Z,3.10
2022-08-02T22:36:16.118Z,4.10
2022-08-02T22:38:44.890Z,3.37
2022-08-02T22:41:13.663Z,3.27
2022-08-02T22:43:42.646Z,3.20
2022-08-02T22:46:15.529Z,3.47
2022-08-02T22:48:45.689Z,4.40
2022-08-02T22:51:14.747Z,4.00
2022-08-02T22:53:43.643Z,3.80
2022-08-02T22:56:12.963Z,3.90
2022-08-02T23:01:33.345Z,4.37
2022-08-02T23:04:01.524Z,4.20
2022-08-02T23:06:29.666Z,4.60
2022-08-02T23:08:57.847Z,4.27
2022-08-02T23:11:25.972Z,4.17
2022-08-02T23:13:54.182Z,5.10
2022-08-02T23:16:39.765Z,4.57
2022-08-02T23:19:27.027Z,4.43
2022-08-02T23:22:02.415Z,5.23
2022-08-02T23:24:33.207Z,4.43
2022-08-02T23:27:01.929Z,4.20
2022-08-02T23:29:30.326Z,4.40
2022-08-02T23:31:59.013Z,4.73
2022-08-02T23:34:28.803Z,3.67
2022-08-02T23:36:57.070Z,3.50
2022-08-02T23:39:25.218Z,4.07
2022-08-02T23:41:55.298Z,4.50
2022-08-02T23:44:24.489Z,4.30
2022-08-02T23:46:53.496Z,3.97
2022-08-02T23:49:22.762Z,4.20
2022-08-02T23:51:52.675Z,5.30
2022-08-02T23:54:21.731Z,4.17
2022-08-02T23:56:50.091Z,3.17
2022-08-02T23:59:18.424Z,3.20
